createdAt,value
2022-11-25T00:00:48.181Z,1.02
2022-11-25T00:03:20.718Z,2.33
2022-11-25T00:06:19.806Z,0.70
2022-11-25T00:09:09.650Z,1.48
2022-11-25T00:12:03.254Z,2.22
2022-11-25T00:14:45.730Z,1.45
2022-11-25T00:17:29.462Z,0.43
2022-11-25T00:20:10.797Z,0.85
2022-11-25T00:22:39.779Z,0.47
2022-11-25T00:25:09.972Z,0.93
2022-11-25T00:27:38.604Z,0.28
2022-11-25T00:30:08.030Z,1.45
2022-11-25T00:32:36.670Z,1.60
2022-11-25T00:35:04.698Z,1.45
2022-11-25T00:37:33.212Z,2.28
2022-11-25T00:40:01.634Z,0.75
2022-11-25T00:42:48.326Z,1.77
2022-11-25T00:45:16.674Z,2.00
2022-11-25T00:47:46.017Z,1.37
2022-11-25T00:50:13.701Z,1.95
2022-11-25T00:52:43.985Z,1.10
2022-11-25T00:55:13.038Z,2.35
2022-11-25T00:57:42.890Z,0.85
2022-11-25T01:00:14.445Z,1.50
2022-11-25T01:02:46.564Z,1.27
2022-11-25T01:05:14.628Z,0.88
2022-11-25T01:07:43.386Z,1.95
2022-11-25T01:10:11.511Z,0.88
2022-11-25T01:12:40.703Z,0.65
2022-11-25T01:15:09.440Z,0.85
2022-11-25T01:17:37.406Z,0.90
2022-11-25T01:20:06.654Z,1.27
2022-11-25T01:22:34.091Z,1.42
2022-11-25T01:25:05.237Z,0.90
2022-11-25T01:27:34.453Z,1.58
2022-11-25T01:30:02.416Z,1.35
2022-11-25T01:32:29.934Z,1.37
2022-11-25T01:34:58.662Z,1.08
2022-11-25T01:37:27.093Z,1.12
2022-11-25T01:39:54.654Z,0.65
2022-11-25T01:42:22.527Z,2.85
2022-11-25T01:45:26.588Z,2.60
2022-11-25T01:47:58.860Z,1.05
2022-11-25T01:50:27.870Z,1.98
2022-11-25T01:52:56.745Z,1.52
2022-11-25T01:55:27.527Z,2.50
2022-11-25T01:58:03.818Z,1.10
2022-11-25T02:00:51.362Z,1.95
2022-11-25T02:03:25.934Z,1.40
2022-11-25T02:06:19.800Z,1.65
2022-11-25T02:08:51.507Z,1.35
2022-11-25T02:11:20.366Z,1.13
2022-11-25T02:13:50.113Z,1.48
2022-11-25T02:16:17.755Z,1.83
2022-11-25T02:18:45.822Z,2.15
2022-11-25T02:21:16.634Z,0.80
2022-11-25T02:23:55.779Z,0.90
2022-11-25T02:26:43.089Z,1.55
2022-11-25T02:29:10.805Z,2.25
2022-11-25T02:31:38.721Z,0.73
2022-11-25T02:34:06.590Z,0.90
2022-11-25T02:36:34.766Z,0.90
2022-11-25T02:39:04.677Z,1.30
2022-11-25T02:41:35.478Z,0.35
2022-11-25T02:44:04.753Z,1.30
2022-11-25T02:46:32.943Z,1.95
2022-11-25T02:49:08.794Z,0.62
2022-11-25T02:51:38.401Z,0.30
2022-11-25T02:54:06.777Z,0.88
2022-11-25T02:56:35.499Z,1.70
2022-11-25T02:59:04.595Z,1.65
2022-11-25T03:01:32.942Z,1.55
2022-11-25T03:04:02.384Z,2.33
2022-11-25T03:06:31.660Z,1.50
2022-11-25T03:09:00.193Z,1.35
2022-11-25T03:11:47.307Z,0.45
2022-11-25T03:14:16.895Z,2.58
2022-11-25T03:16:48.102Z,0.75
2022-11-25T03:19:16.199Z,2.35
2022-11-25T03:21:44.090Z,0.57
2022-11-25T03:24:11.861Z,0.10
2022-11-25T03:26:40.660Z,1.37
2022-11-25T03:29:08.808Z,3.15
2022-11-25T03:31:36.528Z,1.55
2022-11-25T03:34:04.607Z,1.05
2022-11-25T03:36:32.495Z,0.45
2022-11-25T03:39:00.061Z,1.73
2022-11-25T03:41:28.564Z,0.82
2022-11-25T03:43:56.136Z,2.05
2022-11-25T03:46:23.900Z,1.77
2022-11-25T03:48:53.541Z,0.65
2022-11-25T03:51:22.337Z,0.88
2022-11-25T03:53:50.699Z,1.40
2022-11-25T03:56:27.477Z,1.48
2022-11-25T03:58:57.413Z,1.35
2022-11-25T04:01:26.089Z,1.12
2022-11-25T04:03:54.353Z,1.35
2022-11-25T04:06:24.084Z,0.85
2022-11-25T04:08:53.625Z,2.28
2022-11-25T04:11:48.035Z,0.50
2022-11-25T04:14:20.813Z,1.25
2022-11-25T04:16:53.165Z,0.55
2022-11-25T04:19:21.091Z,0.85
2022-11-25T04:21:52.362Z,2.47
2022-11-25T04:24:21.218Z,1.15
2022-11-25T04:26:50.306Z,1.37
2022-11-25T04:29:18.335Z,2.37
2022-11-25T04:31:46.133Z,1.17
2022-11-25T04:34:14.681Z,2.03
2022-11-25T04:36:44.715Z,0.82
2022-11-25T04:39:13.895Z,1.48
2022-11-25T04:41:43.207Z,1.80
2022-11-25T04:48:20.630Z,1.98
2022-11-25T04:50:49.671Z,1.58
2022-11-25T04:53:18.465Z,0.40
2022-11-25T04:55:47.514Z,2.40
2022-11-25T04:58:37.395Z,1.52
2022-11-25T05:01:05.548Z,2.25
2022-11-25T05:03:33.579Z,0.82
2022-11-25T05:06:07.686Z,1.85
2022-11-25T05:08:36.729Z,0.98
2022-11-25T05:11:05.795Z,0.35
2022-11-25T05:13:33.763Z,0.90
2022-11-25T05:16:07.826Z,1.98
2022-11-25T05:18:36.198Z,1.08
2022-11-25T05:21:25.048Z,1.95
2022-11-25T05:24:13.980Z,1.60
2022-11-25T05:26:52.927Z,1.52
2022-11-25T05:29:21.120Z,1.75
2022-11-25T05:31:50.395Z,2.70
2022-11-25T05:34:19.106Z,1.35
2022-11-25T05:36:48.767Z,1.77
2022-11-25T05:39:35.434Z,2.47
2022-11-25T05:42:06.804Z,1.62
2022-11-25T05:44:40.780Z,2.10
2022-11-25T05:47:26.019Z,0.60
2022-11-25T05:50:13.505Z,2.20
2022-11-25T05:52:42.692Z,2.08
2022-11-25T05:55:10.320Z,1.58
2022-11-25T05:57:38.201Z,0.00
2022-11-25T06:00:26.427Z,0.57
2022-11-25T06:03:03.154Z,1.83
2022-11-25T06:05:41.900Z,1.05
2022-11-25T06:08:19.371Z,0.50
2022-11-25T06:10:48.931Z,1.52
2022-11-25T06:13:18.399Z,1.42
2022-11-25T06:15:48.985Z,2.15
2022-11-25T06:18:20.191Z,1.35
2022-11-25T06:20:57.779Z,3.25
2022-11-25T06:23:28.730Z,1.87
2022-11-25T06:26:10.900Z,1.62
2022-11-25T06:29:03.358Z,0.50
2022-11-25T06:31:30.949Z,1.60
2022-11-25T06:34:06.615Z,1.58
2022-11-25T06:36:36.255Z,2.97
2022-11-25T06:41:42.405Z,1.65
2022-11-25T06:44:16.261Z,2.75
2022-11-25T06:46:48.790Z,4.18
2022-11-25T06:49:18.081Z,1.20
2022-11-25T06:51:45.993Z,1.65
2022-11-25T06:54:15.020Z,2.97
2022-11-25T06:56:51.895Z,1.95
2022-11-25T06:59:22.361Z,0.75
2022-11-25T07:02:15.060Z,1.20
2022-11-25T07:05:01.394Z,2.53
2022-11-25T07:07:51.481Z,0.93
2022-11-25T07:10:44.143Z,2.17
2022-11-25T07:13:26.817Z,1.40
2022-11-25T07:16:06.257Z,1.50
2022-11-25T07:18:41.421Z,2.20
2022-11-25T07:21:16.487Z,1.35
2022-11-25T07:23:47.913Z,2.12
2022-11-25T07:26:20.347Z,1.98
2022-11-25T07:28:54.408Z,2.10
2022-11-25T07:31:36.393Z,2.10
2022-11-25T07:34:18.322Z,2.25
2022-11-25T07:36:47.596Z,4.80
2022-11-25T07:39:19.872Z,2.65
2022-11-25T07:41:54.584Z,2.92
2022-11-25T07:47:03.648Z,3.00
2022-11-25T07:49:33.141Z,4.60
2022-11-25T07:52:03.200Z,1.75
2022-11-25T07:54:36.789Z,1.55
2022-11-25T07:57:07.047Z,1.33
2022-11-25T07:59:41.641Z,1.70
2022-11-25T08:04:54.062Z,1.20
2022-11-25T08:07:22.614Z,3.25
2022-11-25T08:09:51.792Z,2.05
2022-11-25T08:12:21.065Z,2.12
2022-11-25T08:14:48.968Z,0.65
2022-11-25T08:17:25.758Z,0.57
2022-11-25T08:19:55.504Z,2.30
2022-11-25T08:22:26.384Z,0.90
2022-11-25T08:24:58.667Z,2.58
2022-11-25T08:27:26.935Z,2.35
2022-11-25T08:30:01.945Z,0.90
2022-11-25T08:32:31.418Z,1.30
2022-11-25T08:35:00.889Z,2.12
2022-11-25T08:40:06.269Z,3.33
2022-11-25T08:42:34.376Z,2.60
2022-11-25T08:45:04.035Z,1.60
2022-11-25T08:47:33.929Z,1.25
2022-11-25T08:52:43.702Z,1.48
2022-11-25T08:55:23.112Z,2.45
2022-11-25T08:57:52.346Z,1.15
2022-11-25T09:00:22.366Z,1.87
2022-11-25T09:02:50.870Z,1.45
2022-11-25T09:05:21.396Z,1.33
2022-11-25T09:07:52.684Z,2.10
2022-11-25T09:10:23.875Z,2.15
2022-11-25T09:12:53.402Z,0.90
2022-11-25T09:15:21.806Z,1.35
2022-11-25T09:18:01.542Z,0.93
2022-11-25T09:20:32.541Z,4.13
2022-11-25T09:23:02.651Z,0.93
2022-11-25T09:25:31.438Z,3.90
2022-11-25T09:27:59.860Z,1.75
2022-11-25T09:30:27.821Z,2.35
2022-11-25T09:33:03.817Z,2.30
2022-11-25T09:35:32.285Z,1.80
2022-11-25T09:38:02.351Z,0.73
2022-11-25T09:40:36.666Z,2.37
2022-11-25T09:43:38.387Z,1.25
2022-11-25T09:46:41.934Z,1.37
2022-11-25T09:49:54.630Z,3.50
2022-11-25T09:52:53.733Z,1.33
2022-11-25T09:55:24.766Z,3.25
2022-11-25T09:58:19.519Z,1.23
2022-11-25T10:00:50.812Z,2.53
2022-11-25T10:03:43.459Z,2.40
2022-11-25T10:07:09.004Z,1.23
2022-11-25T10:09:37.541Z,1.67
2022-11-25T10:12:24.571Z,1.23
2022-11-25T10:15:01.781Z,2.47
2022-11-25T10:17:44.405Z,2.33
2022-11-25T10:20:29.497Z,1.77
2022-11-25T10:23:05.199Z,1.67
2022-11-25T10:25:46.141Z,2.08
2022-11-25T10:28:26.084Z,2.72
2022-11-25T10:31:08.511Z,0.95
2022-11-25T10:33:46.691Z,2.35
2022-11-25T10:36:29.539Z,0.45
2022-11-25T10:39:04.637Z,1.23
2022-11-25T10:41:56.987Z,0.95
2022-11-25T10:44:32.523Z,1.92
2022-11-25T10:47:25.175Z,2.00
2022-11-25T10:50:08.409Z,1.58
2022-11-25T10:52:48.094Z,0.98
2022-11-25T10:55:29.295Z,1.70
2022-11-25T11:05:46.819Z,2.53
2022-11-25T11:08:39.384Z,1.52
2022-11-25T11:11:26.373Z,1.42
2022-11-25T11:14:21.490Z,1.12
2022-11-25T11:17:23.579Z,2.20
2022-11-25T11:20:25.677Z,1.50
2022-11-25T11:23:08.900Z,1.83
2022-11-25T11:25:47.415Z,2.17
2022-11-25T11:28:40.384Z,1.87
2022-11-25T11:31:26.413Z,1.90
2022-11-25T11:34:32.425Z,2.75
2022-11-25T11:37:44.409Z,0.77
2022-11-25T11:40:43.906Z,1.65
2022-11-25T11:43:49.058Z,1.73
2022-11-25T11:46:59.483Z,0.93
2022-11-25T11:49:51.964Z,2.92
2022-11-25T11:53:03.044Z,1.58
2022-11-25T11:59:17.048Z,0.90
2022-11-25T12:02:13.224Z,0.88
2022-11-25T12:05:19.548Z,1.37
2022-11-25T12:08:14.734Z,0.20
2022-11-25T12:11:32.354Z,0.88
2022-11-25T12:14:45.757Z,3.10
2022-11-25T12:17:52.341Z,2.55
2022-11-25T12:20:55.378Z,1.40
2022-11-25T12:24:05.643Z,0.68
2022-11-25T12:31:27.853Z,1.40
2022-11-25T12:34:17.918Z,0.77
2022-11-25T12:37:15.616Z,1.85
2022-11-25T12:40:29.577Z,1.12
2022-11-25T12:43:28.799Z,0.30
2022-11-25T12:46:36.675Z,0.88
2022-11-25T12:49:26.408Z,2.10
2022-11-25T12:52:27.350Z,0.98
2022-11-25T13:00:39.131Z,1.30
2022-11-25T13:03:47.583Z,1.08
2022-11-25T13:06:55.389Z,0.45
2022-11-25T13:10:05.389Z,1.62
2022-11-25T13:13:18.708Z,1.73
2022-11-25T13:16:01.193Z,1.50
2022-11-25T13:18:47.300Z,0.10
2022-11-25T13:25:26.128Z,0.70
2022-11-25T13:28:34.664Z,0.20
2022-11-25T13:31:14.868Z,1.08
2022-11-25T13:34:23.643Z,1.33
2022-11-25T13:37:36.810Z,0.47
2022-11-25T13:40:33.419Z,0.88
2022-11-25T13:43:52.414Z,0.80
2022-11-25T13:46:43.140Z,1.37
2022-11-25T13:49:35.880Z,2.35
2022-11-25T13:55:19.456Z,1.02
2022-11-25T13:58:22.397Z,0.85
2022-11-25T14:01:28.016Z,1.00
2022-11-25T14:04:08.539Z,2.17
2022-11-25T14:07:34.589Z,3.10
2022-11-25T14:10:45.944Z,2.28
2022-11-25T14:13:44.052Z,1.80
2022-11-25T14:17:02.806Z,0.80
2022-11-25T14:26:47.781Z,1.45
2022-11-25T14:29:27.345Z,3.25
2022-11-25T14:32:14.416Z,2.22
2022-11-25T14:34:52.427Z,1.95
2022-11-25T14:37:29.373Z,2.47
2022-11-25T14:40:36.716Z,1.85
2022-11-25T14:43:29.385Z,2.12
2022-11-25T14:46:21.034Z,3.20
2022-11-25T14:48:55.167Z,0.97
2022-11-25T14:51:40.408Z,2.20
2022-11-25T14:54:18.478Z,1.80
2022-11-25T14:56:51.664Z,1.98
2022-11-25T14:59:34.823Z,1.23
2022-11-25T15:02:40.541Z,3.08
2022-11-25T15:08:21.294Z,1.75
2022-11-25T15:11:15.460Z,3.53
2022-11-25T15:14:06.365Z,3.47
2022-11-25T15:17:05.457Z,5.80
2022-11-25T15:19:54.830Z,3.85
2022-11-25T15:22:49.497Z,3.37
2022-11-25T15:25:37.079Z,4.15
2022-11-25T15:28:37.519Z,1.58
2022-11-25T15:31:21.895Z,2.37
2022-11-25T15:33:58.297Z,3.70
2022-11-25T15:36:28.424Z,2.08
2022-11-25T15:39:16.385Z,3.00
2022-11-25T15:41:52.619Z,2.15
2022-11-25T15:47:27.117Z,1.92
2022-11-25T15:50:05.768Z,1.48
2022-11-25T15:52:42.876Z,2.78
2022-11-25T15:55:40.368Z,2.45
2022-11-25T15:58:28.320Z,1.48
2022-11-25T16:01:17.378Z,3.42
2022-11-25T16:03:52.491Z,2.65
2022-11-25T16:07:21.362Z,1.27
2022-11-25T16:10:02.605Z,1.85
2022-11-25T16:12:37.660Z,2.00
2022-11-25T16:15:18.625Z,2.53
2022-11-25T16:18:24.927Z,3.40
2022-11-25T16:21:10.787Z,2.80
2022-11-25T16:23:44.327Z,2.95
2022-11-25T16:26:43.583Z,3.45
2022-11-25T16:29:41.083Z,3.83
2022-11-25T16:32:18.677Z,2.55
2022-11-25T16:35:15.362Z,1.75
2022-11-25T16:38:08.628Z,2.85
2022-11-25T16:44:04.772Z,1.77
2022-11-25T16:46:47.296Z,1.23
2022-11-25T16:49:50.352Z,4.03
2022-11-25T16:52:32.626Z,3.80
2022-11-25T16:55:32.796Z,3.20
2022-11-25T16:58:28.406Z,5.62
2022-11-25T17:01:26.892Z,3.87
2022-11-25T17:04:18.385Z,4.43
2022-11-25T17:07:34.885Z,5.60
2022-11-25T17:10:08.324Z,4.62
2022-11-25T17:12:54.510Z,6.07
2022-11-25T17:15:41.585Z,6.70
2022-11-25T17:18:26.480Z,8.80
2022-11-25T17:21:32.261Z,6.60
2022-11-25T17:24:24.698Z,5.55
2022-11-25T17:27:27.363Z,8.77
2022-11-25T17:30:25.434Z,7.90
2022-11-25T17:33:19.827Z,6.60
2022-11-25T17:36:15.590Z,6.07
2022-11-25T17:39:12.894Z,4.57
2022-11-25T17:41:58.766Z,4.57
2022-11-25T17:47:32.096Z,4.65
2022-11-25T17:50:22.592Z,7.25
2022-11-25T17:53:06.041Z,8.35
2022-11-25T17:56:02.754Z,6.35
2022-11-25T17:58:46.864Z,5.60
2022-11-25T18:01:31.807Z,7.25
2022-11-25T18:04:31.494Z,11.80
2022-11-25T18:07:22.486Z,11.25
2022-11-25T18:10:14.477Z,7.75
2022-11-25T18:15:53.335Z,8.65
2022-11-25T18:18:36.552Z,7.18
2022-11-25T18:21:20.496Z,6.55
2022-11-25T18:24:19.375Z,11.05
2022-11-25T18:27:02.261Z,8.20
2022-11-25T18:29:44.874Z,7.87
2022-11-25T18:32:50.406Z,5.65
2022-11-25T18:38:26.273Z,6.62
2022-11-25T18:41:13.439Z,7.90
2022-11-25T18:44:25.531Z,9.63
2022-11-25T18:47:11.063Z,10.43
2022-11-25T18:50:20.264Z,6.72
2022-11-25T18:53:03.517Z,6.90
2022-11-25T18:55:55.665Z,5.62
2022-11-25T19:01:36.812Z,7.60
2022-11-25T19:04:17.340Z,9.30
2022-11-25T19:07:00.871Z,9.00
2022-11-25T19:09:45.903Z,9.93
2022-11-25T19:12:32.288Z,7.82
2022-11-25T19:15:17.892Z,6.90
2022-11-25T19:18:03.474Z,6.35
2022-11-25T19:21:00.300Z,6.00
2022-11-25T19:23:42.632Z,5.30
2022-11-25T19:26:48.202Z,8.07
2022-11-25T19:29:42.302Z,8.45
2022-11-25T19:32:20.060Z,11.18
2022-11-25T19:34:52.367Z,7.53
2022-11-25T19:39:59.014Z,7.20
2022-11-25T19:42:31.874Z,10.18
2022-11-25T19:45:20.600Z,8.35
2022-11-25T19:48:13.963Z,11.68
2022-11-25T19:51:02.295Z,9.07
2022-11-25T19:53:47.321Z,9.80
2022-11-25T19:56:42.869Z,9.60
2022-11-25T19:59:35.308Z,8.57
2022-11-25T20:02:22.473Z,9.90
2022-11-25T20:05:05.986Z,9.65
2022-11-25T20:07:50.330Z,12.43
2022-11-25T20:10:46.477Z,11.45
2022-11-25T20:13:35.235Z,11.12
2022-11-25T20:19:13.356Z,10.73
2022-11-25T20:22:09.841Z,11.10
2022-11-25T20:24:58.616Z,11.52
2022-11-25T20:27:54.219Z,9.25
2022-11-25T20:30:35.543Z,8.35
2022-11-25T20:33:25.708Z,9.65
2022-11-25T20:36:38.521Z,6.57
2022-11-25T20:39:26.275Z,12.73
2022-11-25T20:42:20.141Z,10.75
2022-11-25T20:45:00.000Z,9.30
2022-11-25T20:47:45.525Z,8.02
2022-11-25T20:50:38.779Z,9.60
2022-11-25T20:53:22.308Z,7.10
2022-11-25T20:56:25.300Z,10.07
2022-11-25T20:59:18.999Z,9.73
2022-11-25T21:02:01.809Z,5.90
2022-11-25T21:04:45.871Z,7.75
2022-11-25T21:07:39.802Z,9.85
2022-11-25T21:10:28.371Z,8.10
2022-11-25T21:13:28.856Z,9.80
2022-11-25T21:16:14.748Z,8.52
2022-11-25T21:19:08.363Z,8.02
2022-11-25T21:21:50.657Z,7.25
2022-11-25T21:24:39.396Z,9.68
2022-11-25T21:27:31.317Z,7.07
2022-11-25T21:30:19.977Z,7.93
2022-11-25T21:33:03.222Z,6.82
2022-11-25T21:35:56.150Z,9.23
2022-11-25T21:38:38.529Z,7.90
2022-11-25T21:41:45.033Z,8.25
2022-11-25T21:44:29.062Z,2.80
2022-11-25T21:47:29.152Z,4.87
2022-11-25T21:50:16.566Z,3.90
2022-11-25T21:53:09.804Z,1.87
2022-11-25T21:55:55.025Z,2.87
2022-11-25T21:58:50.515Z,2.17
2022-11-25T22:01:37.229Z,3.22
2022-11-25T22:04:21.033Z,2.72
2022-11-25T22:07:04.496Z,3.75
2022-11-25T22:10:00.173Z,2.08
2022-11-25T22:12:43.270Z,4.37
2022-11-25T22:15:37.365Z,1.42
2022-11-25T22:18:28.665Z,3.35
2022-11-25T22:21:24.239Z,3.00
2022-11-25T22:24:14.261Z,2.67
2022-11-25T22:27:03.567Z,1.73
2022-11-25T22:29:59.881Z,1.77
2022-11-25T22:32:44.975Z,2.03
2022-11-25T22:35:30.820Z,2.20
2022-11-25T22:38:16.719Z,3.17
2022-11-25T22:41:06.882Z,2.10
2022-11-25T22:43:58.443Z,1.80
2022-11-25T22:46:40.210Z,1.85
2022-11-25T22:49:58.279Z,2.05
2022-11-25T22:52:37.741Z,2.20
2022-11-25T22:55:22.860Z,3.33
2022-11-25T22:58:05.000Z,0.98
2022-11-25T23:00:57.043Z,1.45
2022-11-25T23:03:39.770Z,0.52
2022-11-25T23:06:23.191Z,5.47
2022-11-25T23:09:04.375Z,2.28
2022-11-25T23:11:39.701Z,2.42
2022-11-25T23:14:13.234Z,1.87
2022-11-25T23:16:43.362Z,2.22
2022-11-25T23:19:18.512Z,1.23
2022-11-25T23:21:47.628Z,3.58
2022-11-25T23:24:16.972Z,0.98
2022-11-25T23:26:45.334Z,3.30
2022-11-25T23:29:13.477Z,3.15
2022-11-25T23:31:52.465Z,3.10
2022-11-25T23:34:43.628Z,2.20
2022-11-25T23:41:33.838Z,0.95
2022-11-25T23:44:24.940Z,2.20
2022-11-25T23:47:20.972Z,1.60
2022-11-25T23:50:32.413Z,1.80
2022-11-25T23:53:24.692Z,1.65
2022-11-25T23:56:07.729Z,1.80
2022-11-25T23:59:03.279Z,0.62
